Archival Weather

Abadan

Abadan, Iran (OIAA)

Report from: Monday, July 18, 2022 3:00 PM UTC
Current time: Sunday, July 14, 2024 2:11 AM UTC

Current weather – Weather history – Daily summaries
Weather forecast

Temperature49.0°C (120.2°F)
Heat index45.6°C (114.1°F)
Dew point7.0°C (44.6°F)
Winds 4 kts (2.1 m/s, 4.6 mph) West-Northwest (300°)
Clouds Sky clear
Altimeter29.38 in.Hg (995 mB)
Relative humidity9 %
Density altitude4,507 ft. (1,374 m)
Remarks Ceiling and visibility OK
Flight conditions Visual Meteorological Conditions
Raw dataOIAA 181500Z 30004KT CAVOK 49/07 Q0995
An error has occurred. This application may no longer respond until reloaded. Reload 🗙